Time;durP1;ratioP1;P1;durP2;ratioP2;P2;SDS_P1;SDS_P2;PMS_P1;PMS_P2;Temp;Humidity;BMP_temperature;BMP_pressure;BME280_temperature;BME280_humidity;BME280_pressure;Samples;Min_cycle;Max_cycle;Signal;HPM_P1;HPM_P2
2022/07/26 00:02:09;;;;;;;6.28;3.20;;;20.00;85.80;;;;;;5017047;28;20471;-67
2022/07/26 00:04:35;;;;;;;5.57;2.80;;;20.00;86.40;;;;;;5013550;28;20036;-68
2022/07/26 00:07:00;;;;;;;5.55;2.80;;;20.00;86.70;;;;;;5015268;28;20053;-67
2022/07/26 00:09:26;;;;;;;7.07;2.80;;;20.00;86.80;;;;;;5008181;28;20021;-67
2022/07/26 00:11:52;;;;;;;8.25;2.55;;;20.00;86.40;;;;;;5014162;28;20030;-68
2022/07/26 00:14:18;;;;;;;6.25;2.13;;;20.10;84.30;;;;;;5012076;28;20026;-67
2022/07/26 00:16:43;;;;;;;9.25;2.20;;;20.30;83.20;;;;;;5009654;28;20037;-68
2022/07/26 00:19:09;;;;;;;6.68;2.30;;;20.40;82.10;;;;;;5007686;28;20353;-66
2022/07/26 00:21:36;;;;;;;6.57;1.90;;;20.60;81.80;;;;;;5018686;28;20022;-68
2022/07/26 00:24:03;;;;;;;5.43;2.05;;;20.70;81.30;;;;;;5026264;28;20052;-67
2022/07/26 00:26:32;;;;;;;8.90;2.30;;;20.80;81.00;;;;;;5012153;28;20108;-66
2022/07/26 00:28:58;;;;;;;4.25;2.00;;;20.80;80.60;;;;;;5021285;28;20040;-67
2022/07/26 00:31:24;;;;;;;6.63;2.10;;;20.80;80.60;;;;;;5009730;28;20033;-68
2022/07/26 00:33:51;;;;;;;5.43;2.20;;;20.90;80.20;;;;;;5008044;28;20116;-66
2022/07/26 00:36:17;;;;;;;6.63;1.80;;;20.90;80.30;;;;;;5017062;28;20048;-66
2022/07/26 00:38:43;;;;;;;6.22;1.80;;;20.90;80.20;;;;;;5018132;28;20038;-67
2022/07/26 00:41:08;;;;;;;7.50;2.03;;;20.90;80.30;;;;;;5017899;28;20434;-67
2022/07/26 00:43:34;;;;;;;7.18;2.33;;;20.90;80.60;;;;;;5015288;28;20346;-65
2022/07/26 00:46:05;;;;;;;6.47;2.53;;;20.80;80.80;;;;;;5015908;28;20049;-66
2022/07/26 00:48:31;;;;;;;8.30;2.72;;;20.80;80.90;;;;;;5010454;28;20037;-67
2022/07/26 00:50:57;;;;;;;8.40;2.30;;;20.70;80.90;;;;;;5011271;28;20022;-65
2022/07/26 00:53:24;;;;;;;5.50;2.50;;;20.70;81.00;;;;;;5013635;28;20029;-66
2022/07/26 00:55:50;;;;;;;9.15;2.92;;;20.70;81.00;;;;;;5009261;28;20030;-68
2022/07/26 00:58:17;;;;;;;7.88;2.10;;;20.70;81.10;;;;;;5011697;28;20032;-67
2022/07/26 01:00:43;;;;;;;5.22;2.10;;;20.60;81.20;;;;;;5010783;28;20034;-66
2022/07/26 01:03:09;;;;;;;5.82;2.35;;;20.60;81.60;;;;;;5013619;28;20038;-66
2022/07/26 01:05:35;;;;;;;4.78;2.30;;;20.60;81.50;;;;;;5011174;28;20053;-66
2022/07/26 01:08:01;;;;;;;5.00;2.13;;;20.60;81.50;;;;;;5011655;28;20018;-68
2022/07/26 01:10:27;;;;;;;4.72;2.25;;;20.50;81.80;;;;;;5022426;28;20079;-66
2022/07/26 01:12:56;;;;;;;6.18;1.98;;;20.50;81.90;;;;;;5013734;28;20415;-67
2022/07/26 01:15:22;;;;;;;4.90;2.00;;;20.40;82.10;;;;;;5012083;28;20037;-67
2022/07/26 01:17:48;;;;;;;8.38;2.28;;;20.40;82.30;;;;;;5013819;28;20025;-67
2022/07/26 01:20:14;;;;;;;5.70;2.10;;;20.40;82.40;;;;;;5011507;28;20018;-68
2022/07/26 01:22:40;;;;;;;4.75;2.15;;;20.40;82.80;;;;;;5012211;28;20030;-68
2022/07/26 01:25:07;;;;;;;5.30;2.35;;;20.30;82.90;;;;;;5011339;28;20485;-67
2022/07/26 01:27:37;;;;;;;5.63;2.35;;;20.30;83.20;;;;;;5013962;28;20030;-68
2022/07/26 01:30:06;;;;;;;7.43;2.17;;;20.30;83.30;;;;;;5017355;28;20338;-68
2022/07/26 01:32:32;;;;;;;5.00;2.10;;;20.30;83.30;;;;;;5012575;28;20033;-67
2022/07/26 01:34:58;;;;;;;5.78;2.30;;;20.30;83.80;;;;;;5011240;28;20033;-67
2022/07/26 01:37:24;;;;;;;5.07;2.20;;;20.20;84.10;;;;;;5012950;28;20030;-67
2022/07/26 01:39:49;;;;;;;4.65;2.17;;;20.10;84.80;;;;;;5017371;28;20053;-67
2022/07/26 01:42:15;;;;;;;7.50;2.47;;;20.10;85.00;;;;;;5015486;28;20033;-67
2022/07/26 01:44:41;;;;;;;7.63;2.20;;;20.10;85.00;;;;;;5012433;28;20053;-69
2022/07/26 01:47:07;;;;;;;4.20;1.95;;;20.10;84.80;;;;;;5010676;28;20018;-67
2022/07/26 01:49:33;;;;;;;6.15;2.13;;;20.10;84.90;;;;;;5016836;28;20061;-67
2022/07/26 01:52:02;;;;;;;6.75;2.30;;;20.00;85.00;;;;;;5016283;28;20108;-67
2022/07/26 01:54:27;;;;;;;5.65;2.10;;;20.00;85.20;;;;;;5017248;28;20021;-67
2022/07/26 01:56:54;;;;;;;7.53;2.20;;;19.90;85.40;;;;;;5016397;28;20030;-67
2022/07/26 01:59:22;;;;;;;8.00;1.95;;;19.90;85.40;;;;;;5017335;28;20113;-68
2022/07/26 02:01:48;;;;;;;6.25;2.22;;;19.90;85.50;;;;;;5015942;28;20457;-67
2022/07/26 02:06:58;;;;;;;;;;;19.90;85.60;;;;;;5015591;28;20041;-67
2022/07/26 02:09:26;;;;;;;5.32;2.33;;;19.80;85.80;;;;;;5014772;28;19917;-67
2022/07/26 02:11:52;;;;;;;6.07;2.10;;;19.80;85.90;;;;;;5009526;28;20022;-68
2022/07/26 02:14:18;;;;;;;5.57;2.03;;;19.70;86.10;;;;;;5016593;28;20033;-68
2022/07/26 02:16:44;;;;;;;6.43;2.00;;;19.70;86.20;;;;;;5015527;28;20029;-67
2022/07/26 02:19:09;;;;;;;5.18;2.42;;;19.80;86.10;;;;;;5017950;28;20026;-67
2022/07/26 02:21:35;;;;;;;4.32;2.10;;;19.80;86.10;;;;;;5018247;28;20318;-68
2022/07/26 02:24:00;;;;;;;5.85;1.95;;;19.80;86.10;;;;;;5015758;28;20466;-68
2022/07/26 02:26:29;;;;;;;6.28;2.10;;;19.80;86.30;;;;;;5017721;28;20359;-67
2022/07/26 02:28:54;;;;;;;3.90;1.88;;;19.80;86.40;;;;;;5016009;28;20026;-67
2022/07/26 02:31:23;;;;;;;5.07;2.00;;;19.80;86.50;;;;;;5014335;28;20087;-67
2022/07/26 02:33:51;;;;;;;5.63;2.00;;;19.80;86.50;;;;;;5015951;28;20030;-68
2022/07/26 02:36:17;;;;;;;4.82;2.25;;;19.70;86.60;;;;;;5016799;28;20109;-66
2022/07/26 02:38:43;;;;;;;8.88;2.10;;;19.60;86.90;;;;;;5015217;28;20486;-65
2022/07/26 02:41:11;;;;;;;4.25;1.90;;;19.60;87.10;;;;;;5017771;28;20036;-67
2022/07/26 02:43:37;;;;;;;6.60;2.10;;;19.60;87.30;;;;;;5014943;28;20040;-66
2022/07/26 02:46:05;;;;;;;4.60;2.30;;;19.60;87.30;;;;;;5014810;28;20033;-66
2022/07/26 02:48:31;;;;;;;5.32;2.08;;;19.60;87.40;;;;;;5013333;28;20026;-68
2022/07/26 02:50:56;;;;;;;7.63;2.22;;;19.60;87.40;;;;;;5023542;28;20358;-67
2022/07/26 02:53:22;;;;;;;4.80;2.25;;;19.60;87.40;;;;;;5016886;28;20600;-68
2022/07/26 02:55:47;;;;;;;4.32;1.92;;;19.60;87.40;;;;;;5020341;28;20458;-67
2022/07/26 02:58:13;;;;;;;6.32;2.22;;;19.60;87.40;;;;;;5023969;28;20036;-68
2022/07/26 03:00:39;;;;;;;11.73;2.15;;;19.60;87.10;;;;;;5016820;28;20033;-67
2022/07/26 03:03:04;;;;;;;3.40;1.50;;;19.60;87.20;;;;;;5016486;28;20092;-67
2022/07/26 03:05:30;;;;;;;4.53;1.60;;;19.60;87.50;;;;;;5010312;28;20030;-68
2022/07/26 03:07:56;;;;;;;8.13;2.05;;;19.60;87.60;;;;;;5018821;28;20041;-67
2022/07/26 03:10:21;;;;;;;7.30;2.20;;;19.50;87.70;;;;;;5008640;28;20026;-67
2022/07/26 03:12:47;;;;;;;6.10;2.15;;;19.50;87.80;;;;;;5025777;28;20041;-67
2022/07/26 03:15:13;;;;;;;5.88;1.85;;;19.40;88.00;;;;;;5009017;28;20104;-67
2022/07/26 03:17:41;;;;;;;3.25;1.60;;;19.40;88.00;;;;;;5018899;28;20133;-68
2022/07/26 03:20:07;;;;;;;4.40;2.00;;;19.40;88.10;;;;;;5019595;28;20053;-67
2022/07/26 03:22:33;;;;;;;4.85;1.77;;;19.40;88.20;;;;;;5015774;28;20030;-68
2022/07/26 03:25:00;;;;;;;4.85;2.03;;;19.40;88.20;;;;;;5016717;28;20030;-67
2022/07/26 03:27:26;;;;;;;4.78;1.90;;;19.40;88.20;;;;;;5015593;28;20021;-68
2022/07/26 03:29:51;;;;;;;5.28;2.00;;;19.40;88.10;;;;;;5017945;28;20029;-67
2022/07/26 03:32:17;;;;;;;5.22;2.10;;;19.40;88.20;;;;;;5019712;28;20064;-68
2022/07/26 03:34:43;;;;;;;5.75;2.50;;;19.40;88.20;;;;;;5011503;28;20041;-66
2022/07/26 03:37:08;;;;;;;4.18;2.03;;;19.40;88.20;;;;;;5005425;28;20029;-67
2022/07/26 03:39:36;;;;;;;4.78;2.10;;;19.50;88.10;;;;;;5017105;28;20036;-67
2022/07/26 03:42:02;;;;;;;3.88;1.90;;;19.50;88.00;;;;;;5011902;28;20327;-67
2022/07/26 03:44:28;;;;;;;6.78;2.20;;;19.40;88.00;;;;;;5016159;28;20045;-68
2022/07/26 03:46:54;;;;;;;5.03;2.05;;;19.40;88.10;;;;;;5014923;28;20354;-68
2022/07/26 03:49:21;;;;;;;5.07;1.98;;;19.40;88.40;;;;;;5014942;28;20022;-68
2022/07/26 03:51:47;;;;;;;3.50;1.80;;;19.40;88.50;;;;;;5014662;28;20034;-68
2022/07/26 03:54:13;;;;;;;4.93;2.03;;;19.30;88.50;;;;;;5013989;28;20064;-66
2022/07/26 03:56:39;;;;;;;6.93;2.10;;;19.30;88.80;;;;;;5009311;28;20435;-68
2022/07/26 03:59:09;;;;;;;7.85;2.30;;;19.40;89.10;;;;;;5009245;28;20034;-68
2022/07/26 04:01:40;;;;;;;5.93;1.80;;;19.30;89.20;;;;;;5015787;28;20077;-68
2022/07/26 04:04:08;;;;;;;8.02;2.58;;;19.30;89.20;;;;;;5006874;28;20108;-67
2022/07/26 04:06:33;;;;;;;6.18;2.20;;;19.30;89.20;;;;;;5020974;28;20030;-67
2022/07/26 04:08:59;;;;;;;5.95;1.90;;;19.20;89.40;;;;;;5014080;28;20060;-67
2022/07/26 04:11:25;;;;;;;4.68;2.17;;;19.20;89.70;;;;;;5030984;28;20033;-67
2022/07/26 04:13:50;;;;;;;6.63;2.22;;;19.10;89.90;;;;;;5014601;28;20100;-67
2022/07/26 04:16:16;;;;;;;6.40;1.95;;;19.10;90.20;;;;;;5024085;28;20315;-66
2022/07/26 04:18:42;;;;;;;6.25;2.03;;;19.10;90.30;;;;;;5019494;28;20108;-67
2022/07/26 04:21:08;;;;;;;4.47;2.30;;;19.10;90.30;;;;;;5029526;28;20101;-67
2022/07/26 04:23:33;;;;;;;5.95;2.25;;;19.10;90.30;;;;;;5026282;28;20350;-67
2022/07/26 04:25:59;;;;;;;5.78;2.60;;;19.10;90.30;;;;;;5020703;28;20037;-67
2022/07/26 04:28:28;;;;;;;6.53;2.47;;;19.10;90.40;;;;;;5017277;28;20026;-67
2022/07/26 04:30:55;;;;;;;4.55;2.38;;;19.10;90.20;;;;;;5016158;28;20018;-67
2022/07/26 04:33:20;;;;;;;7.15;1.80;;;19.10;90.30;;;;;;5014261;28;21634;-68
2022/07/26 04:35:46;;;;;;;4.70;2.22;;;19.10;90.40;;;;;;5031555;28;20060;-67
2022/07/26 04:38:17;;;;;;;4.50;1.90;;;19.10;90.30;;;;;;5016606;28;20075;-67
2022/07/26 04:40:45;;;;;;;5.45;1.95;;;19.10;90.40;;;;;;4995488;28;20034;-67
2022/07/26 04:43:11;;;;;;;5.28;2.00;;;19.10;90.30;;;;;;5013071;28;20433;-68
2022/07/26 04:45:37;;;;;;;6.05;2.08;;;19.00;90.50;;;;;;5015907;28;20050;-67
2022/07/26 04:48:03;;;;;;;4.43;2.05;;;19.00;90.40;;;;;;5015172;28;20029;-67
2022/07/26 04:50:28;;;;;;;4.03;2.28;;;19.00;90.40;;;;;;5015948;28;20030;-68
2022/07/26 04:52:57;;;;;;;5.53;2.45;;;19.10;90.40;;;;;;5015244;28;20033;-68
2022/07/26 04:55:23;;;;;;;5.68;2.00;;;19.10;90.10;;;;;;5013786;28;20045;-68
2022/07/26 04:57:49;;;;;;;6.28;2.22;;;19.10;90.30;;;;;;5014947;28;20030;-68
2022/07/26 05:00:20;;;;;;;6.57;2.00;;;19.10;90.10;;;;;;5014782;28;20061;-67
2022/07/26 05:02:48;;;;;;;5.63;2.10;;;19.20;89.80;;;;;;5015939;28;20088;-68
2022/07/26 05:05:14;;;;;;;8.13;2.58;;;19.30;89.90;;;;;;5014311;28;20084;-66
2022/07/26 05:07:41;;;;;;;5.10;1.98;;;19.30;89.70;;;;;;5015307;28;20034;-68
2022/07/26 05:10:07;;;;;;;5.65;1.83;;;19.30;89.90;;;;;;5009386;28;20022;-67
2022/07/26 05:12:33;;;;;;;4.75;2.17;;;19.40;89.80;;;;;;5008045;28;20094;-68
2022/07/26 05:14:59;;;;;;;5.60;2.10;;;19.50;89.60;;;;;;5011121;28;20046;-67
2022/07/26 05:17:24;;;;;;;5.40;2.20;;;19.50;89.70;;;;;;4996202;28;20482;-68
2022/07/26 05:19:50;;;;;;;3.70;1.90;;;19.60;89.20;;;;;;5011554;28;20036;-69
2022/07/26 05:22:16;;;;;;;4.65;2.13;;;19.60;89.40;;;;;;5010772;28;20033;-67
2022/07/26 05:24:41;;;;;;;7.05;2.40;;;19.60;89.30;;;;;;5018993;28;20034;-68
2022/07/26 05:27:07;;;;;;;5.50;2.40;;;19.60;89.70;;;;;;5015595;28;20327;-67
2022/07/26 05:29:33;;;;;;;4.50;2.40;;;19.50;90.00;;;;;;5020992;28;20102;-67
2022/07/26 05:31:59;;;;;;;5.22;2.28;;;19.60;90.00;;;;;;5012202;28;20018;-66
2022/07/26 05:34:24;;;;;;;4.68;2.13;;;19.60;89.90;;;;;;5018779;28;20088;-66
2022/07/26 05:36:50;;;;;;;4.20;2.22;;;19.60;90.00;;;;;;5017913;28;20022;-66
2022/07/26 05:39:16;;;;;;;3.67;2.03;;;19.60;90.20;;;;;;5019245;28;20399;-66
2022/07/26 05:41:41;;;;;;;5.97;2.60;;;19.70;89.80;;;;;;5017519;28;20038;-69
2022/07/26 05:44:08;;;;;;;5.60;2.15;;;19.90;89.20;;;;;;5018210;28;20069;-68
2022/07/26 05:46:36;;;;;;;7.53;2.72;;;20.10;88.80;;;;;;5015860;28;20038;-68
2022/07/26 05:49:03;;;;;;;3.70;2.10;;;20.30;88.60;;;;;;5014306;28;20041;-68
2022/07/26 05:51:29;;;;;;;4.95;2.20;;;20.40;88.00;;;;;;5018281;28;20080;-68
2022/07/26 05:53:57;;;;;;;4.15;2.15;;;20.50;87.70;;;;;;5018123;28;20026;-68
2022/07/26 05:56:23;;;;;;;4.85;2.40;;;20.40;88.20;;;;;;5015645;28;20034;-68
2022/07/26 05:58:48;;;;;;;4.90;2.20;;;20.20;88.40;;;;;;5017357;28;20407;-68
2022/07/26 06:01:14;;;;;;;6.70;2.60;;;20.10;88.90;;;;;;5017205;28;20040;-67
2022/07/26 06:03:40;;;;;;;4.50;2.55;;;20.00;89.00;;;;;;5017188;28;20038;-68
2022/07/26 06:06:05;;;;;;;6.82;2.75;;;19.80;89.70;;;;;;5018622;28;20109;-68
2022/07/26 06:08:32;;;;;;;5.72;2.53;;;19.80;90.10;;;;;;5018163;28;20029;-67
2022/07/26 06:10:58;;;;;;;5.88;2.22;;;19.90;89.80;;;;;;5016509;28;20029;-68
2022/07/26 06:13:24;;;;;;;6.30;2.30;;;19.90;89.80;;;;;;5010432;28;20022;-68
2022/07/26 06:15:50;;;;;;;6.40;2.15;;;20.10;89.40;;;;;;5026600;28;20029;-68
2022/07/26 06:18:16;;;;;;;5.97;2.08;;;20.40;89.20;;;;;;5024577;28;20033;-68
2022/07/26 06:20:43;;;;;;;7.57;2.40;;;20.80;88.40;;;;;;5020147;28;20030;-67
2022/07/26 06:23:10;;;;;;;5.32;2.50;;;21.10;87.30;;;;;;5026564;28;20025;-68
2022/07/26 06:25:36;;;;;;;5.20;2.20;;;21.10;86.10;;;;;;5025672;28;20032;-68
2022/07/26 06:28:07;;;;;;;8.50;2.60;;;20.90;86.20;;;;;;5017644;28;20045;-68
2022/07/26 06:30:33;;;;;;;6.07;3.08;;;20.60;87.00;;;;;;5015994;28;20022;-68
2022/07/26 06:33:01;;;;;;;6.85;2.20;;;20.40;87.90;;;;;;5038049;28;20433;-68
2022/07/26 06:35:30;;;;;;;5.38;2.40;;;20.50;87.40;;;;;;5025856;28;20435;-67
2022/07/26 06:37:58;;;;;;;6.22;2.90;;;20.50;87.40;;;;;;5013289;28;20433;-67
2022/07/26 06:40:24;;;;;;;7.97;2.55;;;20.50;87.70;;;;;;5016722;28;20029;-67
2022/07/26 06:42:50;;;;;;;7.90;2.60;;;20.80;87.70;;;;;;5016737;28;20053;-68
2022/07/26 06:45:16;;;;;;;6.75;2.83;;;21.10;86.20;;;;;;5017303;28;20046;-68
2022/07/26 06:47:42;;;;;;;4.72;2.50;;;21.00;85.70;;;;;;5013453;28;20030;-67
2022/07/26 06:50:09;;;;;;;7.18;2.85;;;20.70;86.60;;;;;;5008842;28;20033;-68
2022/07/26 06:52:35;;;;;;;7.13;2.50;;;20.80;86.40;;;;;;5017355;28;20033;-67
2022/07/26 06:55:02;;;;;;;5.75;3.22;;;20.80;86.10;;;;;;5017182;28;20018;-66
2022/07/26 06:57:29;;;;;;;7.60;3.08;;;20.80;84.90;;;;;;5015481;28;20057;-68
2022/07/26 06:59:55;;;;;;;6.85;3.13;;;20.90;85.40;;;;;;5016674;28;20030;-66
2022/07/26 07:02:20;;;;;;;9.30;4.28;;;21.30;84.90;;;;;;5016691;28;20040;-68
2022/07/26 07:04:46;;;;;;;9.90;3.20;;;21.50;84.00;;;;;;5017541;28;20030;-67
2022/07/26 07:07:12;;;;;;;6.88;3.38;;;21.50;84.00;;;;;;5017776;28;20318;-68
2022/07/26 07:09:37;;;;;;;5.63;2.60;;;21.90;83.60;;;;;;5000899;28;20037;-67
2022/07/26 07:12:04;;;;;;;6.07;3.40;;;21.90;83.50;;;;;;4996071;28;20105;-67
2022/07/26 07:14:31;;;;;;;9.18;3.30;;;21.70;83.00;;;;;;5003446;28;20403;-67
2022/07/26 07:16:56;;;;;;;7.78;3.05;;;21.50;84.20;;;;;;5016162;28;20033;-67
2022/07/26 07:19:22;;;;;;;8.38;2.95;;;21.60;84.40;;;;;;5017694;28;20323;-68
2022/07/26 07:21:48;;;;;;;8.02;2.92;;;21.90;83.40;;;;;;5017668;28;20050;-68
2022/07/26 07:24:14;;;;;;;8.13;2.97;;;22.10;81.20;;;;;;5017462;28;20045;-68
2022/07/26 07:26:40;;;;;;;7.80;2.88;;;21.90;80.90;;;;;;4998364;28;20038;-68
2022/07/26 07:29:08;;;;;;;7.85;2.90;;;21.70;81.30;;;;;;4997816;28;20316;-67
2022/07/26 07:31:34;;;;;;;8.82;3.40;;;21.40;82.30;;;;;;5014368;28;20415;-67
2022/07/26 07:34:00;;;;;;;9.50;2.70;;;21.30;82.50;;;;;;5017474;28;20041;-67
2022/07/26 07:36:26;;;;;;;7.00;3.13;;;21.10;82.70;;;;;;5017124;28;20030;-67
2022/07/26 07:38:51;;;;;;;7.07;3.30;;;20.80;83.10;;;;;;5017404;28;20046;-67
2022/07/26 07:41:17;;;;;;;8.38;2.78;;;20.90;83.20;;;;;;5016033;28;20041;-67
2022/07/26 07:43:43;;;;;;;7.30;2.67;;;21.50;81.10;;;;;;5014875;28;20130;-67
2022/07/26 07:46:09;;;;;;;7.75;2.70;;;22.30;78.60;;;;;;5009096;28;20402;-68
2022/07/26 07:48:36;;;;;;;4.93;2.13;;;22.90;77.10;;;;;;5017025;28;20026;-68
2022/07/26 07:51:02;;;;;;;10.20;2.80;;;23.50;75.80;;;;;;5016433;28;20034;-68
2022/07/26 07:53:28;;;;;;;5.22;2.20;;;24.30;73.90;;;;;;5016654;28;20053;-68
2022/07/26 07:55:53;;;;;;;7.28;2.50;;;24.50;72.00;;;;;;5015693;28;20030;-68
2022/07/26 07:58:19;;;;;;;6.03;2.45;;;24.30;72.50;;;;;;5017022;28;20411;-68
2022/07/26 08:00:45;;;;;;;7.55;2.75;;;24.70;72.20;;;;;;5013980;28;20033;-68
2022/07/26 08:03:11;;;;;;;6.30;2.30;;;25.20;70.50;;;;;;5016395;28;20038;-68
2022/07/26 08:05:36;;;;;;;6.18;2.40;;;25.50;69.80;;;;;;5015153;28;20044;-68
2022/07/26 08:08:03;;;;;;;8.52;2.42;;;25.60;68.80;;;;;;5016697;28;20104;-68
2022/07/26 08:10:29;;;;;;;4.93;1.80;;;24.90;70.30;;;;;;5015496;28;20458;-68
2022/07/26 08:12:55;;;;;;;6.97;2.25;;;25.10;71.10;;;;;;5016612;28;20097;-68
2022/07/26 08:15:22;;;;;;;7.82;2.17;;;26.10;68.50;;;;;;5015889;28;20056;-68
2022/07/26 08:17:48;;;;;;;6.95;2.30;;;26.50;66.50;;;;;;4999642;28;20088;-68
2022/07/26 08:20:14;;;;;;;7.05;2.47;;;25.30;68.50;;;;;;4996789;28;20423;-68
2022/07/26 08:22:40;;;;;;;7.78;2.30;;;24.30;71.10;;;;;;4996940;28;20045;-67
2022/07/26 08:25:06;;;;;;;5.70;2.55;;;24.20;72.30;;;;;;4996366;28;20030;-67
2022/07/26 08:27:32;;;;;;;5.88;1.90;;;25.30;70.00;;;;;;4996027;28;20152;-66
2022/07/26 08:29:57;;;;;;;6.38;2.10;;;25.90;67.10;;;;;;5013120;28;20105;-66
2022/07/26 08:32:23;;;;;;;6.10;2.13;;;26.40;65.60;;;;;;5005778;28;20156;-66
2022/07/26 08:34:49;;;;;;;6.03;1.98;;;26.50;66.20;;;;;;4996847;28;20522;-66
2022/07/26 08:37:14;;;;;;;4.93;1.73;;;26.70;64.80;;;;;;4996644;28;20033;-68
2022/07/26 08:39:40;;;;;;;6.05;1.73;;;27.70;62.50;;;;;;4996629;28;20080;-68
2022/07/26 08:42:13;;;;;;;5.75;1.75;;;27.90;61.50;;;;;;4995454;28;20026;-68
2022/07/26 08:44:43;;;;;;;6.15;2.00;;;26.70;63.20;;;;;;5010191;28;20180;-68
2022/07/26 08:47:21;;;;;;;7.15;2.00;;;25.80;64.50;;;;;;5016351;28;20097;-68
2022/07/26 08:49:47;;;;;;;7.95;1.90;;;25.00;66.00;;;;;;5015437;28;20029;-68
2022/07/26 08:52:15;;;;;;;5.32;1.70;;;25.60;64.60;;;;;;5013549;28;20021;-68
2022/07/26 08:54:49;;;;;;;8.07;1.92;;;26.10;64.60;;;;;;4996532;28;20034;-67
2022/07/26 08:57:15;;;;;;;6.70;1.83;;;25.20;65.30;;;;;;4995077;28;20042;-68
2022/07/26 08:59:41;;;;;;;4.03;1.55;;;25.50;65.10;;;;;;5013364;28;20323;-67
2022/07/26 09:02:12;;;;;;;5.60;1.63;;;25.80;62.20;;;;;;5013445;28;20311;-67
2022/07/26 09:04:43;;;;;;;6.22;1.80;;;26.50;60.90;;;;;;5015961;28;20100;-68
2022/07/26 09:07:14;;;;;;;5.53;1.60;;;26.60;60.50;;;;;;5013504;28;20034;-68
2022/07/26 09:10:19;;;;;;;4.25;1.48;;;25.50;62.30;;;;;;5015247;28;20390;-67
2022/07/26 09:12:45;;;;;;;7.00;1.67;;;25.30;62.80;;;;;;5008126;28;20026;-68
2022/07/26 09:15:22;;;;;;;3.92;1.30;;;26.00;62.10;;;;;;5005617;28;20044;-67
2022/07/26 09:17:50;;;;;;;9.95;1.27;;;27.00;58.90;;;;;;5004080;28;20041;-67
2022/07/26 09:20:25;;;;;;;7.63;1.80;;;27.70;58.30;;;;;;4996334;28;20038;-68
2022/07/26 09:23:00;;;;;;;7.32;1.63;;;27.60;57.90;;;;;;5009742;28;20068;-67
2022/07/26 09:25:27;;;;;;;5.97;1.52;;;26.80;59.50;;;;;;5010239;28;20036;-68
2022/07/26 09:27:53;;;;;;;4.95;1.38;;;25.50;60.70;;;;;;5005996;28;20019;-66
2022/07/26 09:30:19;;;;;;;6.47;1.80;;;25.00;62.30;;;;;;5021472;28;20422;-67
2022/07/26 09:33:04;;;;;;;3.60;1.40;;;24.50;62.40;;;;;;5034459;28;20029;-66
2022/07/26 09:35:37;;;;;;;4.15;1.42;;;25.30;62.40;;;;;;5024586;28;20068;-67
2022/07/26 09:38:14;;;;;;;4.03;1.42;;;26.60;59.30;;;;;;5016645;28;20062;-67
2022/07/26 09:40:41;;;;;;;4.20;1.67;;;26.40;60.30;;;;;;5014259;28;20026;-66
2022/07/26 09:43:07;;;;;;;5.75;1.77;;;25.80;60.50;;;;;;5015676;28;20411;-68
2022/07/26 09:45:35;;;;;;;5.18;1.85;;;24.90;61.60;;;;;;5009479;28;20131;-67
2022/07/26 09:48:02;;;;;;;5.53;1.80;;;24.90;62.50;;;;;;5017665;28;20030;-67
2022/07/26 09:50:32;;;;;;;7.53;1.80;;;24.80;62.60;;;;;;5014687;28;20038;-67
2022/07/26 09:53:10;;;;;;;6.90;1.38;;;24.30;63.90;;;;;;5015667;28;20411;-68
2022/07/26 09:55:56;;;;;;;5.90;1.73;;;24.30;63.30;;;;;;5013625;28;20127;-67
2022/07/26 09:58:23;;;;;;;5.20;1.67;;;25.10;62.50;;;;;;5013905;28;20030;-68
2022/07/26 10:00:49;;;;;;;5.65;1.50;;;25.90;61.00;;;;;;5012385;28;20331;-67
2022/07/26 10:03:15;;;;;;;7.15;1.40;;;26.80;59.10;;;;;;5014104;28;20300;-68
2022/07/26 10:05:41;;;;;;;3.72;1.30;;;27.40;58.00;;;;;;5011109;28;20036;-67
2022/07/26 10:08:07;;;;;;;4.78;1.45;;;27.90;57.70;;;;;;5008606;28;20048;-67
2022/07/26 10:10:44;;;;;;;5.63;1.50;;;28.00;57.40;;;;;;5010871;28;20057;-68
2022/07/26 10:13:10;;;;;;;3.55;1.40;;;28.10;57.50;;;;;;5015348;28;20022;-67
2022/07/26 10:15:49;;;;;;;4.30;1.40;;;28.10;57.30;;;;;;5018913;28;20330;-67
2022/07/26 10:18:37;;;;;;;6.43;1.83;;;27.30;57.70;;;;;;5018753;28;20470;-67
2022/07/26 10:21:21;;;;;;;4.78;1.67;;;27.60;57.90;;;;;;5018715;28;20030;-68
2022/07/26 10:23:55;;;;;;;7.75;1.65;;;27.00;57.50;;;;;;5018661;28;20026;-67
2022/07/26 10:26:35;;;;;;;5.78;1.48;;;26.00;59.20;;;;;;5016946;28;20041;-68
2022/07/26 10:29:16;;;;;;;6.60;1.63;;;25.60;60.90;;;;;;5018641;28;20022;-67
2022/07/26 10:31:46;;;;;;;4.50;1.58;;;26.40;58.50;;;;;;5018517;28;20025;-67
2022/07/26 10:34:29;;;;;;;4.05;1.33;;;26.90;58.40;;;;;;5018483;28;20014;-67
2022/07/26 10:37:06;;;;;;;5.43;1.50;;;27.20;57.10;;;;;;5018489;28;20331;-67
2022/07/26 10:39:32;;;;;;;4.28;1.60;;;27.70;56.80;;;;;;5018310;28;20269;-67
2022/07/26 10:42:04;;;;;;;6.60;1.60;;;27.70;57.40;;;;;;5015911;28;20040;-67
2022/07/26 10:44:31;;;;;;;4.57;1.52;;;26.30;58.40;;;;;;5018218;28;20057;-67
2022/07/26 10:47:13;;;;;;;4.80;1.52;;;25.10;60.50;;;;;;5018216;28;20030;-68
2022/07/26 10:49:40;;;;;;;3.90;1.45;;;25.40;60.90;;;;;;5018047;28;20029;-67
2022/07/26 10:52:14;;;;;;;3.60;1.45;;;26.40;59.50;;;;;;5018186;28;20052;-68
2022/07/26 10:54:58;;;;;;;3.22;1.17;;;27.30;57.90;;;;;;5018187;28;20319;-68
2022/07/26 10:57:29;;;;;;;3.67;1.20;;;28.40;55.50;;;;;;5016640;28;20411;-68
2022/07/26 10:59:56;;;;;;;3.67;1.27;;;29.20;53.90;;;;;;5018006;28;20040;-67
2022/07/26 11:02:30;;;;;;;6.63;1.60;;;27.40;55.80;;;;;;5017993;28;20034;-67
2022/07/26 11:05:11;;;;;;;4.80;1.40;;;25.70;59.50;;;;;;5017827;28;20038;-68
2022/07/26 11:07:48;;;;;;;4.63;1.67;;;25.40;60.00;;;;;;5017863;28;20041;-67
2022/07/26 11:10:14;;;;;;;5.07;1.30;;;25.20;60.40;;;;;;5016283;28;20030;-67
2022/07/26 11:12:39;;;;;;;4.55;1.40;;;26.10;60.40;;;;;;5017617;28;20018;-68
2022/07/26 11:15:19;;;;;;;4.55;1.40;;;26.70;58.40;;;;;;5017758;28;20030;-67
2022/07/26 11:17:45;;;;;;;4.63;1.25;;;26.00;58.70;;;;;;5016675;28;20040;-66
2022/07/26 11:20:22;;;;;;;4.05;1.23;;;25.60;59.20;;;;;;5017460;28;20033;-66
2022/07/26 11:22:48;;;;;;;5.07;1.35;;;25.90;59.10;;;;;;5017580;28;20030;-66
2022/07/26 11:25:22;;;;;;;3.88;1.38;;;26.70;57.20;;;;;;5015696;28;20045;-65
2022/07/26 11:28:04;;;;;;;5.22;1.48;;;27.00;55.80;;;;;;5017534;28;20022;-66
2022/07/26 11:30:30;;;;;;;3.67;1.48;;;27.60;55.10;;;;;;5017509;28;20030;-68
2022/07/26 11:32:59;;;;;;;4.45;1.20;;;27.60;55.20;;;;;;5017526;28;20153;-68
2022/07/26 11:35:26;;;;;;;2.70;1.17;;;27.60;55.70;;;;;;5017221;28;20034;-67
2022/07/26 11:37:56;;;;;;;4.00;1.52;;;26.80;56.90;;;;;;5017294;28;20101;-68
2022/07/26 11:40:44;;;;;;;4.00;1.30;;;25.80;58.40;;;;;;5015472;28;20059;-68
2022/07/26 11:43:10;;;;;;;6.03;1.50;;;25.10;59.90;;;;;;5017144;28;20431;-68
2022/07/26 11:45:36;;;;;;;4.85;1.40;;;25.40;60.20;;;;;;5016910;28;20056;-68
2022/07/26 11:48:04;;;;;;;5.72;1.50;;;26.40;56.60;;;;;;5017067;28;20026;-68
2022/07/26 11:50:31;;;;;;;4.03;1.52;;;26.70;56.90;;;;;;5017091;28;20014;-68
2022/07/26 11:52:56;;;;;;;4.78;1.40;;;26.60;57.40;;;;;;5016978;28;20331;-67
2022/07/26 11:55:28;;;;;;;5.95;1.60;;;26.30;57.20;;;;;;5015607;28;20029;-67
2022/07/26 11:57:54;;;;;;;5.35;1.55;;;26.20;57.80;;;;;;5016838;28;20068;-67
2022/07/26 12:00:20;;;;;;;5.85;1.90;;;25.80;57.80;;;;;;5017052;28;20034;-67
2022/07/26 12:02:46;;;;;;;4.07;1.15;;;25.80;58.70;;;;;;5016649;28;20478;-68
2022/07/26 12:05:23;;;;;;;5.72;1.30;;;25.60;58.60;;;;;;5016795;28;20117;-67
2022/07/26 12:07:53;;;;;;;4.05;1.30;;;25.60;58.90;;;;;;5016790;28;20057;-67
2022/07/26 12:10:19;;;;;;;6.00;1.27;;;26.40;57.30;;;;;;5014770;28;20044;-67
2022/07/26 12:12:45;;;;;;;6.45;1.77;;;26.50;56.40;;;;;;5016578;28;20018;-67
2022/07/26 12:15:14;;;;;;;4.47;1.08;;;26.30;57.20;;;;;;5016526;28;20399;-68
2022/07/26 12:17:56;;;;;;;4.45;1.30;;;26.70;56.70;;;;;;5014338;28;20088;-68
2022/07/26 12:20:27;;;;;;;3.65;1.15;;;27.30;55.50;;;;;;5015823;28;20393;-67
2022/07/26 12:23:03;;;;;;;5.15;1.40;;;27.80;54.00;;;;;;5015603;28;20041;-67
2022/07/26 12:25:29;;;;;;;4.72;1.42;;;27.90;54.00;;;;;;5018213;28;20034;-67
2022/07/26 12:27:55;;;;;;;4.38;1.40;;;26.90;55.00;;;;;;5015432;28;20041;-68
2022/07/26 12:30:21;;;;;;;4.13;1.30;;;25.90;56.90;;;;;;5013361;28;20034;-68
2022/07/26 12:32:50;;;;;;;3.92;1.00;;;26.40;57.30;;;;;;5011355;28;20026;-67
2022/07/26 12:35:24;;;;;;;2.60;1.10;;;27.40;55.90;;;;;;5015964;28;20041;-68
2022/07/26 12:37:52;;;;;;;2.70;1.10;;;27.60;55.10;;;;;;5016163;28;20041;-67
2022/07/26 12:40:26;;;;;;;3.90;1.20;;;27.30;55.00;;;;;;5014531;28;20105;-68
2022/07/26 12:43:01;;;;;;;8.68;1.20;;;28.00;54.40;;;;;;5009521;28;20034;-67
2022/07/26 12:45:32;;;;;;;2.90;1.13;;;28.10;52.50;;;;;;5015850;28;20394;-68
2022/07/26 12:48:00;;;;;;;5.15;1.40;;;28.10;53.40;;;;;;5016206;28;20410;-67
2022/07/26 12:50:28;;;;;;;5.68;1.40;;;28.00;53.10;;;;;;5016194;28;20386;-68
2022/07/26 12:53:01;;;;;;;3.88;1.10;;;28.50;54.50;;;;;;5015996;28;20022;-68
2022/07/26 12:55:27;;;;;;;3.55;1.20;;;28.90;51.60;;;;;;5012438;28;20034;-68